Time;durP1;ratioP1;P1;durP2;ratioP2;P2;SDS_P1;SDS_P2;PMS_P1;PMS_P2;Temp;Humidity;BMP_temperature;BMP_pressure;BME280_temperature;BME280_humidity;BME280_pressure;Samples;Min_cycle;Max_cycle;Signal;HPM_P1;HPM_P2
2023/04/19 00:01:51;;;;;;;1.70;1.60;;;;;;;10.66;100.00;97696.13;5033259;28;20185;-63
2023/04/19 00:04:16;;;;;;;4.78;1.77;;;;;;;11.03;100.00;97756.94;5033188;28;20193;-63
2023/04/19 00:06:41;;;;;;;1.80;1.70;;;;;;;10.70;100.00;97731.16;5033128;28;20253;-63
2023/04/19 00:09:08;;;;;;;2.10;1.65;;;;;;;10.47;100.00;97683.03;5033103;28;20181;-63
2023/04/19 00:11:33;;;;;;;2.67;1.45;;;;;;;10.86;100.00;97741.94;5032702;28;20563;-63
2023/04/19 00:13:59;;;;;;;1.52;1.42;;;;;;;10.29;100.00;97668.97;5032972;28;20194;-63
2023/04/19 00:16:24;;;;;;;1.65;1.20;;;;;;;10.46;100.00;97658.91;5032968;28;20170;-63
2023/04/19 00:18:50;;;;;;;1.40;1.30;;;;;;;10.43;100.00;97655.75;5032966;28;20186;-63
2023/04/19 00:21:15;;;;;;;2.88;1.40;;;;;;;10.46;100.00;97665.88;5032867;28;20174;-63
2023/04/19 00:23:41;;;;;;;1.15;1.05;;;;;;;10.70;100.00;97679.44;5032831;28;20210;-63
2023/04/19 00:26:06;;;;;;;1.48;1.35;;;;;;;10.81;100.00;97703.47;5032782;28;20182;-63
2023/04/19 00:28:33;;;;;;;1.13;1.02;;;;;;;10.42;100.00;97675.66;5032724;28;20545;-63
2023/04/19 00:30:58;;;;;;;0.60;0.60;;;;;;;10.48;100.00;97700.19;5032754;28;20645;-63
2023/04/19 00:33:24;;;;;;;0.90;0.82;;;;;;;10.42;100.00;97685.16;5032649;28;20182;-62
2023/04/19 00:35:49;;;;;;;0.80;0.80;;;;;;;10.64;100.00;97695.44;5032580;28;20206;-62
2023/04/19 00:38:15;;;;;;;0.70;0.70;;;;;;;10.78;100.00;97692.56;5032589;28;20653;-63
2023/04/19 00:40:40;;;;;;;0.70;0.70;;;;;;;11.07;100.00;97709.13;5032285;28;20182;-62
2023/04/19 00:43:06;;;;;;;1.55;0.80;;;;;;;10.92;100.00;97663.81;5032518;28;20270;-62
2023/04/19 00:45:33;;;;;;;0.80;0.75;;;;;;;11.31;100.00;97712.28;5049867;28;20779;-62
2023/04/19 00:48:00;;;;;;;2.53;0.85;;;;;;;11.45;100.00;97725.75;5050063;28;20265;-62
2023/04/19 00:50:25;;;;;;;1.05;1.05;;;;;;;11.16;100.00;97662.59;5049918;28;20193;-62
2023/04/19 00:52:54;;;;;;;1.40;1.30;;;;;;;11.55;100.00;97708.50;5050211;28;20205;-62
2023/04/19 00:55:20;;;;;;;1.00;1.00;;;;;;;11.53;100.00;97700.06;5049842;28;20212;-62
2023/04/19 00:57:46;;;;;;;1.02;1.02;;;;;;;11.25;100.00;97653.25;5049988;28;20212;-62
2023/04/19 01:00:12;;;;;;;1.23;1.15;;;;;;;11.50;100.00;97691.72;5049829;28;20550;-62
2023/04/19 01:02:38;;;;;;;1.95;1.05;;;;;;;11.52;100.00;97689.81;5049828;28;20184;-62
2023/04/19 01:05:03;;;;;;;1.58;1.48;;;;;;;11.51;100.00;97717.50;5049401;28;20591;-62
2023/04/19 01:07:29;;;;;;;1.40;1.38;;;;;;;11.32;100.00;97724.31;5049853;28;20178;-62
2023/04/19 01:09:54;;;;;;;1.40;1.30;;;;;;;10.96;100.00;97645.31;5049768;28;20185;-62
2023/04/19 01:12:20;;;;;;;1.15;1.15;;;;;;;11.22;100.00;97707.88;5049734;28;20216;-62
2023/04/19 01:14:45;;;;;;;2.28;1.30;;;;;;;11.17;100.00;97720.38;5049636;28;20280;-62
2023/04/19 01:17:12;;;;;;;1.60;1.50;;;;;;;10.80;100.00;97651.88;5035647;28;20277;-63
2023/04/19 01:19:38;;;;;;;2.35;1.20;;;;;;;11.13;100.00;97699.09;5032162;28;20174;-62
2023/04/19 01:22:03;;;;;;;1.25;1.15;;;;;;;11.17;100.00;97716.03;5032116;28;20178;-62
2023/04/19 01:24:29;;;;;;;1.35;1.05;;;;;;;11.07;100.00;97698.78;5032126;28;20659;-62
2023/04/19 01:26:55;;;;;;;2.15;1.30;;;;;;;11.03;100.00;97681.88;5032331;28;20266;-62
2023/04/19 01:29:21;;;;;;;2.10;0.77;;;;;;;11.16;100.00;97714.38;5032047;28;20266;-62
2023/04/19 01:31:50;;;;;;;0.90;0.90;;;;;;;10.68;100.00;97630.38;5032060;28;20189;-62
2023/04/19 01:34:16;;;;;;;1.80;1.10;;;;;;;10.66;100.00;97623.69;5031945;28;20687;-62
2023/04/19 01:36:41;;;;;;;1.00;1.00;;;;;;;10.47;100.00;97618.38;5031659;28;20175;-62
2023/04/19 01:39:07;;;;;;;2.25;1.10;;;;;;;10.61;100.00;97624.06;5031950;28;20183;-62
2023/04/19 01:41:32;;;;;;;1.83;0.95;;;;;;;10.98;100.00;97674.47;5032203;28;20182;-62
2023/04/19 01:43:59;;;;;;;1.00;1.00;;;;;;;11.05;100.00;97700.69;5032157;28;20262;-62
2023/04/19 01:46:24;;;;;;;0.85;0.85;;;;;;;10.96;100.00;97697.06;5031857;28;20235;-62
2023/04/19 01:48:50;;;;;;;2.78;0.95;;;;;;;10.97;100.00;97692.72;5031855;28;20174;-62
2023/04/19 01:51:16;;;;;;;0.68;0.68;;;;;;;11.05;100.00;97701.50;5031889;28;20205;-62
2023/04/19 01:53:42;;;;;;;0.98;0.98;;;;;;;10.92;100.00;97663.81;5031745;28;20216;-62
2023/04/19 01:56:07;;;;;;;0.90;0.90;;;;;;;11.01;100.00;97665.63;5049081;28;20190;-62
2023/04/19 01:58:32;;;;;;;0.82;0.82;;;;;;;10.98;100.00;97665.91;5049175;28;20198;-62
2023/04/19 02:00:58;;;;;;;0.90;0.90;;;;;;;10.94;100.00;97647.22;5049124;28;20193;-62
2023/04/19 02:03:23;;;;;;;0.60;0.60;;;;;;;10.71;100.00;97611.22;5049205;28;20542;-62
2023/04/19 02:05:49;;;;;;;0.63;0.63;;;;;;;11.02;100.00;97688.81;5049175;28;20597;-62
2023/04/19 02:08:14;;;;;;;0.70;0.70;;;;;;;10.97;100.00;97692.72;5049269;28;20174;-62
2023/04/19 02:10:39;;;;;;;1.95;0.82;;;;;;;10.48;100.00;97610.50;5049190;28;20281;-62
2023/04/19 02:13:05;;;;;;;1.40;0.80;;;;;;;10.63;100.00;97652.41;5049123;28;20208;-62
2023/04/19 02:15:30;;;;;;;2.05;0.90;;;;;;;10.46;100.00;97603.81;5049234;28;20296;-62
2023/04/19 02:17:56;;;;;;;0.90;0.90;;;;;;;10.76;100.00;97628.03;5052722;28;20216;-62
2023/04/19 02:20:22;;;;;;;0.82;0.82;;;;;;;10.71;100.00;97630.16;5072518;28;20286;-62
2023/04/19 02:22:48;;;;;;;0.85;0.80;;;;;;;10.91;100.00;97654.41;5072620;28;20673;-62
2023/04/19 02:25:15;;;;;;;1.20;1.10;;;;;;;10.96;100.00;97670.34;5052459;28;20216;-62
2023/04/19 02:27:40;;;;;;;0.90;0.90;;;;;;;10.54;100.00;97604.84;5037793;28;20252;-62
2023/04/19 02:30:07;;;;;;;2.22;0.77;;;;;;;10.63;100.00;97626.53;5032588;28;20194;-62
2023/04/19 02:32:32;;;;;;;1.40;0.77;;;;;;;10.85;100.00;97662.66;5029920;28;20621;-62
2023/04/19 02:34:57;;;;;;;0.60;0.60;;;;;;;11.04;100.00;97673.16;5032387;28;20221;-62
2023/04/19 02:37:23;;;;;;;1.75;0.50;;;;;;;10.63;100.00;97595.50;5032481;28;20302;-62
2023/04/19 02:39:48;;;;;;;0.55;0.55;;;;;;;10.76;100.00;97611.66;5032453;28;20190;-62
2023/04/19 02:42:14;;;;;;;0.60;0.60;;;;;;;10.84;100.00;97599.72;5032360;28;20179;-62
2023/04/19 02:44:39;;;;;;;0.57;0.57;;;;;;;11.32;100.00;97667.34;5032328;28;20197;-62
2023/04/19 02:47:05;;;;;;;0.40;0.40;;;;;;;11.15;100.00;97621.31;5032259;28;20217;-62
2023/04/19 02:49:35;;;;;;;0.50;0.50;;;;;;;11.27;100.00;97659.13;5032247;28;20186;-62
2023/04/19 02:52:01;;;;;;;0.60;0.60;;;;;;;10.80;100.00;97577.63;4997074;28;20192;-62
2023/04/19 02:54:26;;;;;;;0.50;0.50;;;;;;;11.34;100.00;97655.91;4992733;28;20211;-62
2023/04/19 02:56:52;;;;;;;1.25;0.35;;;;;;;11.25;100.00;97622.16;5042731;28;20220;-62
2023/04/19 02:59:17;;;;;;;0.40;0.40;;;;;;;10.96;100.00;97577.19;5051846;28;20320;-62
2023/04/19 03:01:42;;;;;;;1.73;0.52;;;;;;;11.47;100.00;97669.47;5051922;28;20213;-62
2023/04/19 03:04:08;;;;;;;0.60;0.60;;;;;;;10.98;100.00;97578.69;5051906;28;20268;-62
2023/04/19 03:06:33;;;;;;;0.60;0.60;;;;;;;11.19;100.00;97617.50;5051760;28;20182;-62
2023/04/19 03:08:58;;;;;;;0.50;0.50;;;;;;;11.19;100.00;97630.44;5051770;28;20697;-62
2023/04/19 03:11:24;;;;;;;0.50;0.50;;;;;;;11.22;100.00;97617.25;5051830;28;20189;-62
2023/04/19 03:13:49;;;;;;;1.40;0.40;;;;;;;11.49;100.00;97659.00;5051694;28;20186;-62
2023/04/19 03:16:15;;;;;;;0.60;0.60;;;;;;;11.38;100.00;97625.41;5051703;28;20181;-62
2023/04/19 03:18:40;;;;;;;0.35;0.35;;;;;;;11.60;100.00;97657.16;5051605;28;20652;-62
2023/04/19 03:21:08;;;;;;;0.50;0.50;;;;;;;11.08;100.00;97574.41;5051559;28;20178;-62
2023/04/19 03:23:34;;;;;;;1.38;0.70;;;;;;;10.90;100.00;97578.53;5066155;28;20193;-62
2023/04/19 03:25:59;;;;;;;0.47;0.47;;;;;;;10.96;100.00;97623.78;5071505;28;20202;-63
2023/04/19 03:28:25;;;;;;;0.65;0.65;;;;;;;10.73;100.00;97575.72;5043287;28;20190;-62
2023/04/19 03:30:50;;;;;;;0.70;0.70;;;;;;;10.83;100.00;97605.03;5033881;28;20236;-63
2023/04/19 03:33:16;;;;;;;0.70;0.70;;;;;;;10.67;100.00;97581.34;5033789;28;20182;-62
2023/04/19 03:35:43;;;;;;;0.50;0.50;;;;;;;10.85;100.00;97624.66;5033710;28;20271;-62
2023/04/19 03:38:08;;;;;;;0.90;0.65;;;;;;;11.03;100.00;97656.00;5033612;28;20189;-62
2023/04/19 03:40:36;;;;;;;0.70;0.70;;;;;;;10.78;100.00;97617.53;5033391;28;20186;-62
2023/04/19 03:43:02;;;;;;;0.40;0.40;;;;;;;11.17;100.00;97655.66;5033631;28;20175;-62
2023/04/19 03:45:27;;;;;;;0.70;0.70;;;;;;;11.01;100.00;97626.81;5033563;28;20178;-62
2023/04/19 03:47:52;;;;;;;2.97;1.20;;;;;;;10.85;100.00;97587.63;5050920;28;20193;-62
2023/04/19 03:50:18;;;;;;;2.15;1.30;;;;;;;11.15;100.00;97639.44;5051014;28;20277;-62
2023/04/19 03:52:43;;;;;;;0.80;0.80;;;;;;;11.39;100.00;97669.28;5050929;28;20217;-62
2023/04/19 03:55:10;;;;;;;2.80;2.28;;;;;;;11.33;100.00;97648.28;5050981;28;20237;-63
2023/04/19 03:57:36;;;;;;;0.82;0.55;;;;;;;11.21;100.00;97650.09;5050711;28;20194;-62
2023/04/19 04:00:06;;;;;;;0.85;0.85;;;;;;;11.19;100.00;97640.81;5050865;28;20185;-62
2023/04/19 04:02:32;;;;;;;1.63;0.90;;;;;;;11.11;100.00;97638.03;5050683;28;20296;-63
2023/04/19 04:04:57;;;;;;;0.60;0.60;;;;;;;10.84;100.00;97604.06;5050671;28;20648;-62
2023/04/19 04:07:23;;;;;;;2.25;1.10;;;;;;;10.86;100.00;97623.72;5050588;28;20209;-62
2023/04/19 04:09:49;;;;;;;1.13;0.90;;;;;;;10.68;100.00;97599.34;5050568;28;20178;-62
2023/04/19 04:12:14;;;;;;;0.98;0.82;;;;;;;11.15;100.00;97670.50;5050482;28;20181;-62
2023/04/19 04:14:40;;;;;;;0.90;0.90;;;;;;;10.81;100.00;97606.94;5050405;28;20205;-62
2023/04/19 04:17:05;;;;;;;0.90;0.90;;;;;;;10.74;100.00;97604.00;5050409;28;20184;-63
2023/04/19 04:19:31;;;;;;;1.83;0.90;;;;;;;11.04;100.00;97662.81;5050443;28;20557;-62
2023/04/19 04:21:56;;;;;;;0.85;0.85;;;;;;;11.03;100.00;97661.16;5050342;28;20256;-63
2023/04/19 04:24:22;;;;;;;0.65;0.65;;;;;;;10.93;100.00;97650.75;5048104;28;20664;-62
2023/04/19 04:26:48;;;;;;;0.85;0.70;;;;;;;10.99;100.00;97664.94;5032641;28;20185;-62
2023/04/19 04:29:15;;;;;;;0.73;0.73;;;;;;;10.80;100.00;97633.75;5032622;28;20186;-62
2023/04/19 04:31:40;;;;;;;2.58;0.73;;;;;;;10.60;100.00;97606.09;5032604;28;20183;-62
2023/04/19 04:34:08;;;;;;;2.05;0.80;;;;;;;10.88;100.00;97665.00;5032397;28;20578;-62
2023/04/19 04:36:34;;;;;;;0.80;0.80;;;;;;;10.75;100.00;97648.84;5049854;28;20590;-63
2023/04/19 04:39:00;;;;;;;3.60;1.20;;;;;;;10.38;100.00;97580.31;5049396;28;20201;-62
2023/04/19 04:41:26;;;;;;;1.25;1.20;;;;;;;11.02;100.00;97668.09;5049987;28;20196;-62
2023/04/19 04:43:52;;;;;;;1.40;1.30;;;;;;;10.85;100.00;97626.44;5049948;28;20174;-62
2023/04/19 04:46:17;;;;;;;1.50;1.40;;;;;;;11.26;100.00;97675.63;5049932;28;20200;-62
2023/04/19 04:48:43;;;;;;;1.80;0.93;;;;;;;11.03;100.00;97619.75;5049878;28;20568;-62
2023/04/19 04:51:08;;;;;;;2.85;0.85;;;;;;;11.45;100.00;97667.97;5049715;28;20322;-62
2023/04/19 04:53:34;;;;;;;0.95;0.90;;;;;;;10.89;100.00;97595.00;5049830;28;20184;-63
2023/04/19 04:55:59;;;;;;;0.70;0.70;;;;;;;11.21;100.00;97638.94;5049746;28;20326;-64
2023/04/19 04:58:25;;;;;;;0.80;0.80;;;;;;;11.32;100.00;97662.16;5049499;28;20263;-62
2023/04/19 05:00:50;;;;;;;4.15;2.00;;;;;;;11.34;100.00;97665.44;5049763;28;20189;-63
2023/04/19 05:03:16;;;;;;;1.40;1.40;;;;;;;11.22;100.00;97671.63;5049683;28;20213;-63
2023/04/19 05:05:41;;;;;;;4.07;2.83;;;;;;;11.26;100.00;97666.06;5049491;28;20190;-63
2023/04/19 05:08:07;;;;;;;2.25;2.15;;;;;;;11.40;100.00;97673.53;5034779;28;20677;-63
2023/04/19 05:10:32;;;;;;;3.47;1.02;;;;;;;10.85;100.00;97595.41;5029755;28;20264;-63
2023/04/19 05:12:58;;;;;;;1.30;1.20;;;;;;;11.15;100.00;97631.69;5029825;28;20587;-63
2023/04/19 05:15:23;;;;;;;1.27;1.00;;;;;;;10.92;100.00;97592.16;5029535;28;20230;-63
2023/04/19 05:17:48;;;;;;;2.15;1.25;;;;;;;11.45;100.00;97673.16;5029735;28;20183;-62
2023/04/19 05:20:14;;;;;;;1.35;1.25;;;;;;;11.53;100.00;97686.25;5029632;28;20183;-63
2023/04/19 05:22:39;;;;;;;5.15;1.17;;;;;;;11.62;100.00;97678.56;4990276;28;20784;-63
2023/04/19 05:25:05;;;;;;;1.05;1.00;;;;;;;11.19;100.00;97599.38;4990557;28;20187;-63
2023/04/19 05:27:31;;;;;;;2.17;0.80;;;;;;;11.72;100.00;97668.28;4990330;28;20196;-63
2023/04/19 05:29:56;;;;;;;0.65;0.65;;;;;;;11.62;100.00;97650.06;4999569;28;20195;-63
2023/04/19 05:32:21;;;;;;;1.10;0.90;;;;;;;11.34;100.00;97605.88;5009611;28;20641;-63
2023/04/19 05:34:47;;;;;;;2.15;1.40;;;;;;;11.55;100.00;97648.13;5009558;28;20276;-63
2023/04/19 05:37:12;;;;;;;1.50;1.40;;;;;;;11.35;100.00;97610.09;5009308;28;20191;-63
2023/04/19 05:39:37;;;;;;;3.10;1.77;;;;;;;11.74;100.00;97681.91;5009299;28;20183;-63
2023/04/19 05:42:03;;;;;;;1.63;1.52;;;;;;;11.47;100.00;97635.81;4989660;28;20191;-63
2023/04/19 05:44:28;;;;;;;1.42;1.33;;;;;;;11.70;100.00;97676.16;4990092;28;20234;-63
2023/04/19 05:46:54;;;;;;;1.55;1.45;;;;;;;11.30;100.00;97607.06;4989751;28;20188;-63
2023/04/19 05:49:19;;;;;;;1.50;1.08;;;;;;;11.22;100.00;97599.13;4989917;28;20221;-63
2023/04/19 05:51:44;;;;;;;0.90;0.90;;;;;;;11.71;100.00;97682.16;4993865;28;20199;-63
2023/04/19 05:54:12;;;;;;;0.82;0.80;;;;;;;11.68;100.00;97682.44;5021956;28;20221;-63
2023/04/19 05:56:38;;;;;;;0.85;0.85;;;;;;;11.32;100.00;97677.72;5031804;28;20191;-63
2023/04/19 05:59:03;;;;;;;1.70;0.88;;;;;;;11.03;100.00;97630.09;5032223;28;20259;-63
2023/04/19 06:01:29;;;;;;;1.42;0.88;;;;;;;10.97;100.00;97621.06;5033156;28;20653;-63
2023/04/19 06:03:54;;;;;;;1.00;0.80;;;;;;;11.34;100.00;97679.22;5032992;28;20266;-63
2023/04/19 06:06:23;;;;;;;2.10;1.00;;;;;;;11.44;100.00;97681.88;5032770;28;20190;-63
2023/04/19 06:08:49;;;;;;;2.65;1.00;;;;;;;11.57;100.00;97682.47;5032809;28;20237;-63
2023/04/19 06:11:14;;;;;;;3.22;1.48;;;;;;;11.42;100.00;97637.13;5032764;28;20288;-63
2023/04/19 06:13:40;;;;;;;4.13;2.20;;;;;;;11.31;100.00;97599.19;5034325;28;20187;-63
2023/04/19 06:16:06;;;;;;;2.40;2.20;;;;;;;11.86;100.00;97673.09;5034963;28;20668;-63
2023/04/19 06:18:32;;;;;;;3.88;2.20;;;;;;;11.72;100.00;97671.66;5035124;28;20178;-63
2023/04/19 06:20:57;;;;;;;6.43;1.98;;;;;;;11.82;100.00;97688.09;5035372;28;20171;-63
2023/04/19 06:23:24;;;;;;;1.73;1.55;;;;;;;11.74;100.00;97671.53;5035122;28;20241;-63
2023/04/19 06:25:49;;;;;;;4.00;1.48;;;;;;;11.56;100.00;97649.75;5034795;28;20179;-63
2023/04/19 06:28:15;;;;;;;3.03;1.15;;;;;;;11.62;100.00;97652.66;5035035;28;20171;-63
2023/04/19 06:30:40;;;;;;;2.17;2.00;;;;;;;11.41;100.00;97612.19;5034542;28;20185;-63
2023/04/19 06:33:06;;;;;;;2.55;1.40;;;;;;;11.53;100.00;97621.50;5034776;28;20253;-63
2023/04/19 06:35:31;;;;;;;3.15;1.80;;;;;;;12.01;100.00;97689.94;5032215;28;20277;-63
2023/04/19 06:37:58;;;;;;;3.10;2.20;;;;;;;11.98;100.00;97705.75;5031978;28;20206;-63
2023/04/19 06:40:24;;;;;;;2.83;2.05;;;;;;;11.27;100.00;97634.03;5011874;28;20214;-63
2023/04/19 06:42:49;;;;;;;3.33;1.55;;;;;;;11.13;100.00;97641.31;5012697;28;20226;-63
2023/04/19 06:45:15;;;;;;;1.75;1.30;;;;;;;11.26;100.00;97642.78;5012569;28;20672;-63
2023/04/19 06:47:40;;;;;;;1.48;1.13;;;;;;;11.19;100.00;97614.91;5012432;28;20187;-63
2023/04/19 06:50:06;;;;;;;1.90;1.23;;;;;;;11.34;100.00;97629.19;5011836;28;20199;-63
2023/04/19 06:52:31;;;;;;;5.15;2.60;;;;;;;11.38;100.00;97621.03;5011696;28;20218;-63
2023/04/19 06:54:57;;;;;;;3.42;1.67;;;;;;;11.74;100.00;97661.19;5012406;28;20223;-63
2023/04/19 06:57:22;;;;;;;0.60;0.60;;;;;;;12.02;100.00;97694.97;5012248;28;20549;-63
2023/04/19 06:59:48;;;;;;;1.98;1.23;;;;;;;12.13;100.00;97707.84;5012371;28;20329;-63
2023/04/19 07:02:13;;;;;;;1.08;1.08;;;;;;;12.01;100.00;97677.78;5011727;28;20646;-63
2023/04/19 07:04:38;;;;;;;1.23;1.05;;;;;;;12.12;100.00;97705.38;5015864;28;20191;-63
2023/04/19 07:07:07;;;;;;;1.60;1.50;;;;;;;11.94;100.00;97666.31;5031849;28;20251;-63
2023/04/19 07:09:32;;;;;;;1.95;0.90;;;;;;;11.81;100.00;97633.78;5011978;28;20252;-63
2023/04/19 07:11:57;;;;;;;1.50;0.80;;;;;;;11.97;100.00;97655.66;5028535;28;20191;-63
2023/04/19 07:14:23;;;;;;;2.17;0.85;;;;;;;12.29;100.00;97696.97;5051447;28;20225;-63
2023/04/19 07:16:48;;;;;;;0.95;0.90;;;;;;;12.31;100.00;97684.69;5051697;28;20181;-63
2023/04/19 07:19:14;;;;;;;0.93;0.93;;;;;;;11.99;100.00;97616.63;5051515;28;20190;-63
2023/04/19 07:21:40;;;;;;;2.33;2.15;;;;;;;12.29;100.00;97658.88;5051505;28;20259;-63
2023/04/19 07:24:06;;;;;;;1.70;1.60;;;;;;;12.68;100.00;97715.09;5051558;28;20285;-63
2023/04/19 07:26:32;;;;;;;1.13;1.02;;;;;;;12.49;100.00;97659.75;5051513;28;20260;-63
2023/04/19 07:28:58;;;;;;;1.15;1.15;;;;;;;12.73;100.00;97693.91;5051410;28;20201;-63
2023/04/19 07:31:24;;;;;;;1.92;1.73;;;;;;;12.46;100.00;97634.88;5051211;28;20174;-63
2023/04/19 07:33:50;;;;;;;1.75;1.60;;;;;;;12.96;100.00;97713.50;5030937;28;20195;-63
2023/04/19 07:36:15;;;;;;;1.50;1.40;;;;;;;12.97;100.00;97710.75;5031288;28;20275;-63
2023/04/19 07:38:41;;;;;;;0.80;0.80;;;;;;;12.91;100.00;97731.22;5031554;28;20248;-63
2023/04/19 07:41:06;;;;;;;1.65;1.00;;;;;;;12.93;100.00;97724.09;5011198;28;20194;-63
2023/04/19 07:43:32;;;;;;;1.33;1.23;;;;;;;12.84;100.00;97699.78;5011702;28;20202;-63
2023/04/19 07:45:57;;;;;;;1.30;1.10;;;;;;;13.00;100.00;97720.06;5011137;28;20187;-63
2023/04/19 07:48:23;;;;;;;1.02;1.02;;;;;;;12.65;100.00;97699.78;5011292;28;20187;-63
2023/04/19 07:50:48;;;;;;;3.35;2.17;;;;;;;12.52;100.00;97672.44;5011271;28;20662;-62
2023/04/19 07:53:15;;;;;;;3.15;1.80;;;;;;;12.75;100.00;97720.53;5011288;28;20278;-63
2023/04/19 07:55:40;;;;;;;1.40;1.10;;;;;;;12.34;100.00;97667.09;5011095;28;20293;-63
2023/04/19 07:58:06;;;;;;;2.15;1.42;;;;;;;12.79;100.00;97727.09;5011065;28;20260;-62
2023/04/19 08:00:33;;;;;;;2.03;1.02;;;;;;;12.52;100.00;97682.81;5011101;28;20182;-63
2023/04/19 08:02:59;;;;;;;1.45;1.20;;;;;;;12.44;100.00;97696.44;5010437;28;20642;-63
2023/04/19 08:05:25;;;;;;;3.47;2.83;;;;;;;12.39;100.00;97687.44;5010673;28;20258;-63
2023/04/19 08:07:51;;;;;;;2.92;2.60;;;;;;;12.69;100.00;97739.25;5011059;28;20179;-63
2023/04/19 08:10:18;;;;;;;1.38;1.27;;;;;;;12.62;100.00;97699.22;5013082;28;20186;-62
2023/04/19 08:12:43;;;;;;;2.65;1.00;;;;;;;12.36;100.00;97651.41;5030443;28;20221;-63
2023/04/19 08:15:12;;;;;;;1.20;1.20;;;;;;;12.40;100.00;97652.75;5029941;28;20732;-63
2023/04/19 08:17:41;;;;;;;1.67;1.58;;;;;;;12.75;100.00;97721.38;5033461;28;20240;-63
2023/04/19 08:20:07;;;;;;;3.65;3.10;;;;;;;12.85;100.00;97723.97;5052829;28;20170;-63
2023/04/19 08:22:32;;;;;;;2.90;2.38;;;;;;;12.56;100.00;97694.56;5052845;28;20181;-62
2023/04/19 08:24:58;;;;;;;1.63;1.52;;;;;;;12.80;100.00;97729.59;5052699;28;20248;-63
2023/04/19 08:27:25;;;;;;;1.48;1.38;;;;;;;12.76;100.00;97722.19;5052623;28;20178;-62
2023/04/19 08:29:51;;;;;;;1.38;1.10;;;;;;;12.69;100.00;97692.53;5052747;28;20706;-62
2023/04/19 08:32:16;;;;;;;1.00;1.00;;;;;;;12.66;100.00;97687.63;5052688;28;20181;-63
2023/04/19 08:34:42;;;;;;;1.00;1.00;;;;;;;12.62;100.00;97686.25;5052198;28;20189;-62
2023/04/19 08:37:07;;;;;;;0.90;0.90;;;;;;;12.62;100.00;97678.47;5052121;28;20181;-62
2023/04/19 08:39:33;;;;;;;1.10;1.10;;;;;;;12.62;100.00;97657.69;5052377;28;20170;-62
2023/04/19 08:42:05;;;;;;;3.30;2.95;;;;;;;12.61;100.00;97645.69;5029817;28;20229;-63
2023/04/19 08:44:32;;;;;;;1.40;1.30;;;;;;;12.88;100.00;97658.78;5030152;28;20403;-63
2023/04/19 08:47:00;;;;;;;1.08;1.08;;;;;;;12.91;100.00;97637.75;5030440;28;20233;-63
2023/04/19 08:49:27;;;;;;;1.48;0.80;;;;;;;13.01;100.00;97638.59;5028672;28;20177;-63
2023/04/19 08:51:54;;;;;;;2.25;1.30;;;;;;;13.23;100.00;97649.50;5027898;28;20190;-63
2023/04/19 08:54:20;;;;;;;1.50;1.40;;;;;;;13.80;100.00;97705.69;5030018;28;20319;-63
2023/04/19 08:56:46;;;;;;;1.50;1.40;;;;;;;13.82;100.00;97678.59;5029957;28;20182;-63
2023/04/19 08:59:12;;;;;;;1.42;1.25;;;;;;;14.11;100.00;97715.69;5029892;28;20587;-63
2023/04/19 09:01:38;;;;;;;1.23;1.15;;;;;;;13.84;100.00;97647.25;5029856;28;20201;-63
2023/04/19 09:04:05;;;;;;;0.98;0.98;;;;;;;13.99;100.00;97649.22;5029913;28;20170;-63
2023/04/19 09:06:35;;;;;;;1.45;1.40;;;;;;;14.47;100.00;97714.84;5029759;28;20684;-63
2023/04/19 09:09:21;;;;;;;2.42;2.22;;;;;;;14.49;100.00;97668.69;5030149;28;20187;-63
2023/04/19 09:11:47;;;;;;;9.77;6.40;;;;;;;14.66;100.00;97667.91;5030102;28;20194;-63
2023/04/19 09:14:14;;;;;;;2.03;1.90;;;;;;;15.17;100.00;97716.69;5049671;28;20178;-62
2023/04/19 09:16:41;;;;;;;9.15;5.47;;;;;;;14.96;100.00;97662.31;5049696;28;20281;-62
2023/04/19 09:19:11;;;;;;;10.10;6.57;;;;;;;15.52;100.00;97721.91;5049674;28;20181;-62
2023/04/19 09:21:37;;;;;;;4.50;3.40;;;;;;;15.42;100.00;97689.88;5049640;28;20564;-63
2023/04/19 09:24:03;;;;;;;2.65;2.45;;;;;;;15.78;100.00;97720.94;5049617;28;20178;-62
2023/04/19 09:26:29;;;;;;;5.10;2.53;;;;;;;16.16;100.00;97728.31;5033101;28;20201;-62
2023/04/19 09:29:03;;;;;;;2.95;2.17;;;;;;;16.23;100.00;97697.19;5033791;28;20190;-62
2023/04/19 09:31:30;;;;;;;2.03;1.85;;;;;;;16.12;100.00;97643.47;5033644;28;20716;-62
2023/04/19 09:33:56;;;;;;;2.13;2.03;;;;;;;16.45;100.00;97670.53;5033652;28;20179;-62
2023/04/19 09:36:31;;;;;;;4.32;1.80;;;;;;;16.85;100.00;97720.25;5034174;28;20261;-64
2023/04/19 09:38:57;;;;;;;3.42;1.80;;;;;;;16.74;100.00;97689.22;5053533;28;20235;-63
2023/04/19 09:41:24;;;;;;;3.05;1.50;;;;;;;16.73;100.00;97658.84;5053491;28;20264;-63
2023/04/19 09:43:50;;;;;;;1.75;1.30;;;;;;;17.20;100.00;97714.75;5053430;28;20178;-63
2023/04/19 09:46:35;;;;;;;1.42;1.33;;;;;;;17.07;100.00;97677.78;5053400;28;20205;-63
2023/04/19 09:49:16;;;;;;;1.80;1.70;;;;;;;17.33;100.00;97720.31;5053407;28;20181;-63
2023/04/19 09:51:52;;;;;;;1.70;1.60;;;;;;;17.05;91.71;97677.16;5053259;28;20239;-63
2023/04/19 09:54:19;;;;;;;1.60;1.50;;;;;;;17.27;91.86;97700.88;5053276;28;20177;-63
2023/04/19 09:56:46;;;;;;;2.13;1.75;;;;;;;17.03;93.77;97640.72;5053657;28;20660;-63
2023/04/19 09:59:11;;;;;;;5.63;1.40;;;;;;;17.25;91.46;97666.22;5055755;28;20274;-63
2023/04/19 10:01:45;;;;;;;1.83;1.73;;;;;;;17.36;91.37;97662.44;5055491;28;20169;-63
2023/04/19 10:04:13;;;;;;;5.18;1.30;;;;;;;17.62;89.81;97684.03;5055356;28;20216;-62
2023/04/19 10:06:40;;;;;;;2.03;1.50;;;;;;;17.90;86.13;97704.38;5055400;28;20191;-62
2023/04/19 10:09:07;;;;;;;1.80;1.20;;;;;;;17.95;85.00;97701.28;5055032;28;20660;-62
2023/04/19 10:11:39;;;;;;;1.65;1.55;;;;;;;17.89;81.78;97675.78;5055263;28;20268;-63
2023/04/19 10:14:07;;;;;;;2.35;1.30;;;;;;;17.77;77.86;97656.19;5055224;28;20642;-64
2023/04/19 10:16:35;;;;;;;1.65;1.27;;;;;;;18.07;78.66;97694.72;5054932;28;20204;-63
2023/04/19 10:19:03;;;;;;;2.08;1.75;;;;;;;17.87;79.24;97643.72;5055115;28;20183;-64
2023/04/19 10:21:30;;;;;;;1.40;1.38;;;;;;;18.17;76.56;97695.31;5055146;28;20204;-63
2023/04/19 10:23:57;;;;;;;1.88;1.48;;;;;;;18.29;78.61;97699.19;5055100;28;20513;-63
2023/04/19 10:26:22;;;;;;;1.55;1.45;;;;;;;18.23;74.16;97702.47;5054975;28;20180;-63
2023/04/19 10:28:48;;;;;;;1.50;1.40;;;;;;;17.98;73.95;97674.75;5054992;28;20173;-63
2023/04/19 10:31:13;;;;;;;2.05;1.75;;;;;;;17.91;73.41;97664.16;5054894;28;20174;-63
2023/04/19 10:33:40;;;;;;;3.08;1.30;;;;;;;18.13;72.90;97678.31;5032595;28;20665;-63
2023/04/19 10:36:10;;;;;;;1.67;1.58;;;;;;;17.85;68.89;97630.78;5031955;28;20798;-63
2023/04/19 10:38:50;;;;;;;1.23;1.10;;;;;;;18.41;68.08;97703.13;5032211;28;20609;-63
2023/04/19 10:41:21;;;;;;;1.75;1.20;;;;;;;18.10;71.62;97637.59;5032443;28;20176;-63
2023/04/19 10:44:10;;;;;;;1.38;1.27;;;;;;;18.74;65.27;97715.06;5032528;28;20196;-63
2023/04/19 10:46:41;;;;;;;0.95;0.95;;;;;;;18.53;63.63;97625.78;5027289;28;20194;-63
2023/04/19 10:49:08;;;;;;;2.78;1.10;;;;;;;18.96;59.42;97696.75;5032398;28;20190;-62
2023/04/19 10:51:36;;;;;;;2.67;1.20;;;;;;;18.69;61.84;97630.88;5032261;28;20283;-62
2023/04/19 10:54:02;;;;;;;1.17;1.13;;;;;;;19.44;64.04;97696.41;5032415;28;20200;-63
2023/04/19 10:56:34;;;;;;;1.00;1.00;;;;;;;19.47;60.96;97700.47;5032434;28;20189;-62
2023/04/19 10:59:21;;;;;;;1.65;1.20;;;;;;;19.76;59.25;97711.03;5032063;28;20288;-62
2023/04/19 11:01:56;;;;;;;1.33;1.13;;;;;;;20.14;55.88;97709.97;5012366;28;20256;-63
2023/04/19 11:04:42;;;;;;;1.17;1.10;;;;;;;20.07;58.42;97661.81;5027453;28;20219;-63
2023/04/19 11:07:08;;;;;;;0.90;0.90;;;;;;;19.49;55.23;97630.25;5051765;28;20275;-62
2023/04/19 11:09:34;;;;;;;0.95;0.90;;;;;;;19.56;57.18;97623.28;5051906;28;20261;-63
2023/04/19 11:12:09;;;;;;;0.70;0.70;;;;;;;19.60;55.46;97663.94;5051845;28;20193;-63
2023/04/19 11:14:56;;;;;;;1.35;1.25;;;;;;;19.36;58.38;97675.44;5051673;28;20204;-63
2023/04/19 11:17:29;;;;;;;1.17;0.70;;;;;;;19.16;58.38;97694.44;5051741;28;20224;-63
2023/04/19 11:20:13;;;;;;;1.00;0.98;;;;;;;18.98;57.87;97649.34;5031669;28;20276;-62
2023/04/19 11:22:44;;;;;;;1.23;1.23;;;;;;;19.19;57.43;97683.63;5031757;28;20209;-62
2023/04/19 11:25:16;;;;;;;1.38;1.10;;;;;;;19.48;58.78;97697.66;5031623;28;20186;-62